createdAt,value
2018-12-27T00:02:09.439Z,4.10
2018-12-27T00:04:37.348Z,3.90
2018-12-27T00:07:05.179Z,4.00
2018-12-27T00:09:36.393Z,3.90
2018-12-27T00:12:04.520Z,3.80
2018-12-27T00:14:32.420Z,3.80
2018-12-27T00:17:00.484Z,3.70
2018-12-27T00:19:28.540Z,4.10
2018-12-27T00:21:56.622Z,2.90
2018-12-27T00:24:24.534Z,3.70
2018-12-27T00:26:52.399Z,4.00
2018-12-27T00:29:22.454Z,3.40
2018-12-27T00:31:50.401Z,3.70
2018-12-27T00:34:18.473Z,3.40
2018-12-27T00:36:46.428Z,3.60
2018-12-27T00:39:14.531Z,3.40
2018-12-27T00:41:42.590Z,3.50
2018-12-27T00:44:10.628Z,3.30
2018-12-27T00:46:38.654Z,3.30
2018-12-27T00:49:06.429Z,3.10
2018-12-27T00:51:38.796Z,3.40
2018-12-27T00:54:06.698Z,2.90
2018-12-27T00:56:34.636Z,3.20
2018-12-27T00:59:02.582Z,3.10
2018-12-27T01:01:30.720Z,3.00
2018-12-27T01:03:58.744Z,2.80
2018-12-27T01:06:26.815Z,2.30
2018-12-27T01:08:54.732Z,2.90
2018-12-27T01:11:22.830Z,2.50
2018-12-27T01:13:50.844Z,2.90
2018-12-27T01:16:18.856Z,2.90
2018-12-27T01:18:46.864Z,3.00
2018-12-27T01:21:16.377Z,3.00
2018-12-27T01:23:44.387Z,2.80
2018-12-27T01:26:12.295Z,3.00
2018-12-27T01:28:40.391Z,2.90
2018-12-27T01:31:08.227Z,3.00
2018-12-27T01:33:36.196Z,2.10
2018-12-27T01:36:04.107Z,2.60
2018-12-27T01:38:34.558Z,3.20
2018-12-27T01:41:02.485Z,2.90
2018-12-27T01:43:30.496Z,3.10
2018-12-27T01:45:58.684Z,3.00
2018-12-27T01:48:26.724Z,3.10
2018-12-27T01:50:54.792Z,3.00
2018-12-27T01:53:22.751Z,3.00
2018-12-27T01:55:50.687Z,3.20
2018-12-27T01:58:20.965Z,2.80
2018-12-27T02:00:48.940Z,2.80
2018-12-27T02:03:16.946Z,3.10
2018-12-27T02:05:44.916Z,3.00
2018-12-27T02:08:13.051Z,2.90
2018-12-27T02:10:41.465Z,3.20
2018-12-27T02:13:14.256Z,2.70
2018-12-27T02:15:42.240Z,2.70
2018-12-27T02:18:10.353Z,2.80
2018-12-27T02:20:38.293Z,2.60
2018-12-27T02:23:08.443Z,2.70
2018-12-27T02:25:39.050Z,3.00
2018-12-27T02:28:09.006Z,2.90
2018-12-27T02:30:37.004Z,2.80
2018-12-27T02:33:05.004Z,3.00
2018-12-27T02:35:33.074Z,2.60
2018-12-27T02:38:01.108Z,2.60
2018-12-27T02:40:29.119Z,2.80
2018-12-27T02:42:57.131Z,2.50
2018-12-27T02:45:25.104Z,2.60
2018-12-27T02:47:53.190Z,3.00
2018-12-27T02:50:23.847Z,2.40
2018-12-27T02:52:52.884Z,2.90
2018-12-27T02:55:21.214Z,2.60
2018-12-27T02:57:49.686Z,2.60
2018-12-27T03:00:18.290Z,2.70
2018-12-27T03:02:49.013Z,2.40
2018-12-27T03:05:17.763Z,2.60
2018-12-27T03:07:45.997Z,2.80
2018-12-27T03:10:21.089Z,2.80
2018-12-27T03:12:55.634Z,2.40
2018-12-27T03:15:27.783Z,2.40
2018-12-27T03:17:56.703Z,2.50
2018-12-27T03:20:30.579Z,2.30
2018-12-27T03:22:58.853Z,2.20
2018-12-27T03:25:33.230Z,1.90
2018-12-27T03:28:01.571Z,2.60
2018-12-27T03:30:31.363Z,2.30
2018-12-27T03:33:00.641Z,2.30
2018-12-27T03:35:31.393Z,2.30
2018-12-27T03:38:00.749Z,2.10
2018-12-27T03:40:30.189Z,2.00
2018-12-27T03:42:58.929Z,1.90
2018-12-27T03:45:26.963Z,1.50
2018-12-27T03:47:55.075Z,2.10
2018-12-27T03:50:23.178Z,2.10
2018-12-27T03:52:51.462Z,1.80
2018-12-27T03:55:19.427Z,2.20
2018-12-27T03:57:47.468Z,1.80
2018-12-27T04:00:15.773Z,1.70
2018-12-27T04:02:46.483Z,2.20
2018-12-27T04:05:15.058Z,1.60
2018-12-27T04:07:45.641Z,1.90
2018-12-27T04:10:13.622Z,1.70
2018-12-27T04:12:41.576Z,1.90
2018-12-27T04:15:09.538Z,2.30
2018-12-27T04:17:39.492Z,2.30
2018-12-27T04:20:07.458Z,2.30
2018-12-27T04:22:37.721Z,1.60
2018-12-27T04:25:05.901Z,1.70
2018-12-27T04:27:33.779Z,2.00
2018-12-27T04:30:01.639Z,1.90
2018-12-27T04:32:30.375Z,2.10
2018-12-27T04:34:58.512Z,1.80
2018-12-27T04:37:26.308Z,1.60
2018-12-27T04:39:54.270Z,2.00
2018-12-27T04:42:22.139Z,1.90
2018-12-27T04:44:50.019Z,2.00
2018-12-27T04:47:18.135Z,1.80
2018-12-27T04:49:46.021Z,1.80
2018-12-27T04:52:15.964Z,2.10
2018-12-27T04:54:43.896Z,1.60
2018-12-27T04:57:11.790Z,1.70
2018-12-27T04:59:39.857Z,1.60
2018-12-27T05:02:07.933Z,2.00
2018-12-27T05:04:35.809Z,2.10
2018-12-27T05:07:05.564Z,1.60
2018-12-27T05:09:33.425Z,1.80
2018-12-27T05:12:01.305Z,1.70
2018-12-27T05:14:29.356Z,2.00
2018-12-27T05:16:59.447Z,1.90
2018-12-27T05:19:28.965Z,1.60
2018-12-27T05:21:56.978Z,1.80
2018-12-27T05:24:24.899Z,1.60
2018-12-27T05:26:52.922Z,1.60
2018-12-27T05:29:20.983Z,1.70
2018-12-27T05:31:48.937Z,1.80
2018-12-27T05:34:25.993Z,2.00
2018-12-27T05:36:48.730Z,2.00
2018-12-27T05:39:16.679Z,2.00
2018-12-27T05:41:44.765Z,2.10
2018-12-27T05:44:15.822Z,2.00
2018-12-27T05:46:43.699Z,2.20
2018-12-27T05:49:11.572Z,2.20
2018-12-27T05:51:39.501Z,1.90
2018-12-27T05:54:10.366Z,2.10
2018-12-27T05:56:40.628Z,2.50
2018-12-27T05:59:08.639Z,2.50
2018-12-27T06:01:36.565Z,2.30
2018-12-27T06:04:04.493Z,2.30
2018-12-27T06:06:34.791Z,2.40
2018-12-27T06:09:04.591Z,2.50
2018-12-27T06:11:32.569Z,2.50
2018-12-27T06:14:00.532Z,2.50
2018-12-27T06:16:29.670Z,2.80
2018-12-27T06:18:59.892Z,2.70
2018-12-27T06:21:27.922Z,2.40
2018-12-27T06:23:55.963Z,2.60
2018-12-27T06:26:24.004Z,1.90
2018-12-27T06:28:54.297Z,2.60
2018-12-27T06:31:23.723Z,2.60
2018-12-27T06:33:53.414Z,2.80
2018-12-27T06:36:21.460Z,2.60
2018-12-27T06:38:49.406Z,3.10
2018-12-27T06:41:20.471Z,2.60
2018-12-27T06:43:48.545Z,2.80
2018-12-27T06:46:16.408Z,2.80
2018-12-27T06:48:44.250Z,3.00
2018-12-27T06:51:12.193Z,2.90
2018-12-27T06:53:39.935Z,2.90
2018-12-27T06:56:07.820Z,2.70
2018-12-27T06:58:37.845Z,2.80
2018-12-27T07:01:05.310Z,2.80
2018-12-27T07:03:33.199Z,2.80
2018-12-27T07:06:01.030Z,3.00
2018-12-27T07:08:28.973Z,2.90
2018-12-27T07:10:56.961Z,3.10
2018-12-27T07:13:24.761Z,2.90
2018-12-27T07:15:52.576Z,3.10
2018-12-27T07:18:20.470Z,2.80
2018-12-27T07:20:48.460Z,3.00
2018-12-27T07:23:16.327Z,2.80
2018-12-27T07:25:44.109Z,2.80
2018-12-27T07:28:11.923Z,2.80
2018-12-27T07:30:39.844Z,2.80
2018-12-27T07:33:07.632Z,2.90
2018-12-27T07:35:35.520Z,2.90
2018-12-27T07:38:05.255Z,2.90
2018-12-27T07:40:33.181Z,2.90
2018-12-27T07:43:00.968Z,3.10
2018-12-27T07:45:28.889Z,3.10
2018-12-27T07:47:56.664Z,3.00
2018-12-27T07:50:24.518Z,3.00
2018-12-27T07:52:52.386Z,3.10
2018-12-27T07:55:20.278Z,3.50
2018-12-27T07:57:48.250Z,3.20
2018-12-27T08:00:16.111Z,3.40
2018-12-27T08:02:44.031Z,3.10
2018-12-27T08:05:11.839Z,3.20
2018-12-27T08:07:39.659Z,3.40
2018-12-27T08:10:07.578Z,3.20
2018-12-27T08:12:35.453Z,3.30
2018-12-27T08:15:03.451Z,3.40
2018-12-27T08:17:31.325Z,3.40
2018-12-27T08:19:59.206Z,3.40
2018-12-27T08:22:26.999Z,3.60
2018-12-27T08:24:54.925Z,3.40
2018-12-27T08:27:22.716Z,3.80
2018-12-27T08:29:50.491Z,3.40
2018-12-27T08:32:18.422Z,3.80
2018-12-27T08:34:46.250Z,3.40
2018-12-27T08:37:14.058Z,3.10
2018-12-27T08:39:41.971Z,3.20
2018-12-27T08:42:09.739Z,3.30
2018-12-27T08:44:37.544Z,3.70
2018-12-27T08:47:05.415Z,3.70
2018-12-27T08:49:33.390Z,3.70
2018-12-27T08:52:01.475Z,3.90
2018-12-27T08:54:29.489Z,3.70
2018-12-27T08:56:57.311Z,3.80
2018-12-27T08:59:25.313Z,3.80
2018-12-27T09:01:53.175Z,4.30
2018-12-27T09:04:24.046Z,4.20
2018-12-27T09:06:51.874Z,4.30
2018-12-27T09:09:19.777Z,4.20
2018-12-27T09:11:47.656Z,4.40
2018-12-27T09:14:16.047Z,4.20
2018-12-27T09:16:43.920Z,4.20
2018-12-27T09:19:11.902Z,4.50
2018-12-27T09:21:45.482Z,4.60
2018-12-27T09:24:13.376Z,4.40
2018-12-27T09:26:41.247Z,4.50
2018-12-27T09:29:09.368Z,4.60
2018-12-27T09:31:39.141Z,4.50
2018-12-27T09:34:07.181Z,4.40
2018-12-27T09:36:38.050Z,4.40
2018-12-27T09:39:07.576Z,4.50
2018-12-27T09:41:35.618Z,4.50
2018-12-27T09:44:05.024Z,4.90
2018-12-27T09:46:33.034Z,5.20
2018-12-27T09:49:01.507Z,5.10
2018-12-27T09:51:39.235Z,5.40
2018-12-27T09:54:07.272Z,5.10
2018-12-27T09:56:41.697Z,5.10
2018-12-27T09:59:11.324Z,5.80
2018-12-27T10:01:42.903Z,5.70
2018-12-27T10:04:17.854Z,5.60
2018-12-27T10:06:49.876Z,5.80
2018-12-27T10:09:18.090Z,5.90
2018-12-27T10:11:46.101Z,6.00
2018-12-27T10:14:14.131Z,6.30
2018-12-27T10:16:42.165Z,6.30
2018-12-27T10:19:10.135Z,6.00
2018-12-27T10:21:38.090Z,6.10
2018-12-27T10:24:06.098Z,6.00
2018-12-27T10:26:33.990Z,5.90
2018-12-27T10:29:02.021Z,6.20
2018-12-27T10:31:29.814Z,6.30
2018-12-27T10:33:57.652Z,6.30
2018-12-27T10:36:25.620Z,6.70
2018-12-27T10:38:59.951Z,6.80
2018-12-27T10:41:27.822Z,6.60
2018-12-27T10:43:55.731Z,7.10
2018-12-27T10:46:28.424Z,7.00
2018-12-27T10:48:56.276Z,7.20
2018-12-27T10:51:24.190Z,7.20
2018-12-27T10:53:52.205Z,7.20
2018-12-27T10:56:20.167Z,7.10
2018-12-27T10:58:48.152Z,7.10
2018-12-27T11:01:20.257Z,6.90
2018-12-27T11:03:48.326Z,7.70
2018-12-27T11:06:16.196Z,7.90
2018-12-27T11:08:44.035Z,7.80
2018-12-27T11:11:12.088Z,8.30
2018-12-27T11:13:40.021Z,8.10
2018-12-27T11:16:08.038Z,8.30
2018-12-27T11:18:36.031Z,8.10
2018-12-27T11:21:03.979Z,8.40
2018-12-27T11:23:32.793Z,8.70
2018-12-27T11:26:00.774Z,8.70
2018-12-27T11:28:28.774Z,8.50
2018-12-27T11:30:58.101Z,8.70
2018-12-27T11:33:26.143Z,8.50
2018-12-27T11:35:55.894Z,8.80
2018-12-27T11:38:23.885Z,8.30
2018-12-27T11:40:51.850Z,8.20
2018-12-27T11:43:19.762Z,8.40
2018-12-27T11:45:47.698Z,8.40
2018-12-27T11:48:15.631Z,8.10
2018-12-27T11:50:43.491Z,8.00
2018-12-27T11:53:11.400Z,8.40
2018-12-27T11:55:41.647Z,8.20
2018-12-27T11:58:09.563Z,8.50
2018-12-27T12:00:37.931Z,8.50
2018-12-27T12:03:05.992Z,8.70
2018-12-27T12:05:33.989Z,8.90
2018-12-27T12:08:01.854Z,8.60
2018-12-27T12:10:29.778Z,8.50
2018-12-27T12:12:57.754Z,8.80
2018-12-27T12:15:25.542Z,8.90
2018-12-27T12:17:53.415Z,9.20
2018-12-27T12:20:30.221Z,9.00
2018-12-27T12:22:58.148Z,9.10
2018-12-27T12:25:28.281Z,9.30
2018-12-27T12:27:56.637Z,9.20
2018-12-27T12:30:24.810Z,9.90
2018-12-27T12:32:58.955Z,9.50
2018-12-27T12:35:27.579Z,9.10
2018-12-27T12:37:56.031Z,9.50
2018-12-27T12:40:27.028Z,9.90
2018-12-27T12:42:57.844Z,10.10
2018-12-27T12:45:25.994Z,10.00
2018-12-27T12:47:57.500Z,9.90
2018-12-27T12:50:28.588Z,10.30
2018-12-27T12:52:59.973Z,10.60
2018-12-27T12:55:28.311Z,10.60
2018-12-27T12:57:59.343Z,10.30
2018-12-27T13:00:29.487Z,10.50
2018-12-27T13:03:02.843Z,10.50
2018-12-27T13:05:30.999Z,9.90
2018-12-27T13:08:01.856Z,10.20
2018-12-27T13:10:33.413Z,10.20
2018-12-27T13:13:02.841Z,10.50
2018-12-27T13:15:30.885Z,10.30
2018-12-27T13:18:03.184Z,10.60
2018-12-27T13:20:33.475Z,10.40
2018-12-27T13:23:01.771Z,10.20
2018-12-27T13:25:32.881Z,10.20
2018-12-27T13:28:01.286Z,10.00
2018-12-27T13:30:32.219Z,10.00
2018-12-27T13:33:02.691Z,9.80
2018-12-27T13:35:42.995Z,9.50
2018-12-27T13:38:11.436Z,9.40
2018-12-27T13:40:44.078Z,9.70
2018-12-27T13:43:12.167Z,10.00
2018-12-27T13:45:42.618Z,9.60
2018-12-27T13:48:12.745Z,9.40
2018-12-27T13:50:41.062Z,9.50
2018-12-27T13:53:09.648Z,9.60
2018-12-27T13:55:38.190Z,9.60
2018-12-27T13:58:07.967Z,9.50
2018-12-27T14:00:36.568Z,9.50
2018-12-27T14:03:07.059Z,9.20
2018-12-27T14:05:40.492Z,8.90
2018-12-27T14:08:11.710Z,8.50
2018-12-27T14:10:39.650Z,8.60
2018-12-27T14:13:07.688Z,8.60
2018-12-27T14:15:35.555Z,8.70
2018-12-27T14:18:03.993Z,8.80
2018-12-27T14:20:32.062Z,8.80
2018-12-27T14:22:59.932Z,9.00
2018-12-27T14:25:27.884Z,8.80
2018-12-27T14:27:55.941Z,8.10
2018-12-27T14:30:23.842Z,8.50
2018-12-27T14:32:51.734Z,8.10
2018-12-27T14:35:20.203Z,8.40
2018-12-27T14:37:48.193Z,8.40
2018-12-27T14:40:16.149Z,8.50
2018-12-27T14:42:44.147Z,8.50
2018-12-27T14:45:12.261Z,8.30
2018-12-27T14:47:43.217Z,8.40
2018-12-27T14:50:11.326Z,8.80
2018-12-27T14:52:39.292Z,8.70
2018-12-27T14:55:07.483Z,8.10
2018-12-27T14:57:35.488Z,8.70
2018-12-27T15:00:08.101Z,8.60
2018-12-27T15:02:36.407Z,8.30
2018-12-27T15:05:07.960Z,8.40
2018-12-27T15:07:43.954Z,8.10
2018-12-27T15:10:15.719Z,8.10
2018-12-27T15:12:43.704Z,8.10
2018-12-27T15:15:13.287Z,8.10
2018-12-27T15:17:41.397Z,8.20
2018-12-27T15:20:11.130Z,8.10
2018-12-27T15:22:43.008Z,8.10
2018-12-27T15:25:13.059Z,8.00
2018-12-27T15:27:46.479Z,7.90
2018-12-27T15:30:16.948Z,8.00
2018-12-27T15:32:48.324Z,8.00
2018-12-27T15:35:16.631Z,8.00
2018-12-27T15:37:44.993Z,7.90
2018-12-27T15:40:13.825Z,7.90
2018-12-27T15:42:42.001Z,8.10
2018-12-27T15:45:11.629Z,7.90
2018-12-27T15:47:39.610Z,8.00
2018-12-27T15:50:08.036Z,7.70
2018-12-27T15:52:39.298Z,7.90
2018-12-27T15:55:07.611Z,7.50
2018-12-27T15:57:35.762Z,7.90
2018-12-27T16:00:04.099Z,7.90
2018-12-27T16:02:32.029Z,8.00
2018-12-27T16:05:00.207Z,7.70
2018-12-27T16:07:30.404Z,7.40
2018-12-27T16:09:58.436Z,7.60
2018-12-27T16:12:29.455Z,7.20
2018-12-27T16:14:57.604Z,7.60
2018-12-27T16:17:25.706Z,7.60
2018-12-27T16:19:54.053Z,7.50
2018-12-27T16:22:24.554Z,7.10
2018-12-27T16:24:52.711Z,7.30
2018-12-27T16:27:20.762Z,7.00
2018-12-27T16:29:51.015Z,7.00
2018-12-27T16:32:24.152Z,7.40
2018-12-27T16:34:52.236Z,7.10
2018-12-27T16:37:20.155Z,6.90
2018-12-27T16:39:48.269Z,6.30
2018-12-27T16:42:24.719Z,6.80
2018-12-27T16:44:56.611Z,6.60
2018-12-27T16:47:24.872Z,6.80
2018-12-27T16:49:53.108Z,6.60
2018-12-27T16:52:21.157Z,6.90
2018-12-27T16:54:49.305Z,6.90
2018-12-27T16:57:19.911Z,7.20
2018-12-27T16:59:50.531Z,6.90
2018-12-27T17:02:26.508Z,7.30
2018-12-27T17:04:54.542Z,6.90
2018-12-27T17:07:22.673Z,7.20
2018-12-27T17:09:50.657Z,6.80
2018-12-27T17:12:19.747Z,6.50
2018-12-27T17:14:47.847Z,6.70
2018-12-27T17:17:17.347Z,6.90
2018-12-27T17:19:45.436Z,6.60
2018-12-27T17:22:16.527Z,6.80
2018-12-27T17:24:44.625Z,6.70
2018-12-27T17:27:12.637Z,6.70
2018-12-27T17:29:40.538Z,6.70
2018-12-27T17:32:09.201Z,6.60
2018-12-27T17:34:37.519Z,6.80
2018-12-27T17:37:05.515Z,6.30
2018-12-27T17:39:35.124Z,6.50
2018-12-27T17:42:03.044Z,6.30
2018-12-27T17:44:31.004Z,6.20
2018-12-27T17:46:58.905Z,6.40
2018-12-27T17:49:27.025Z,6.20
2018-12-27T17:51:54.966Z,6.30
2018-12-27T17:54:22.938Z,6.30
2018-12-27T17:56:50.880Z,5.90
2018-12-27T17:59:18.921Z,6.00
2018-12-27T18:01:46.823Z,6.00
2018-12-27T18:04:14.777Z,6.40
2018-12-27T18:06:42.633Z,6.10
2018-12-27T18:09:10.538Z,6.20
2018-12-27T18:11:38.494Z,6.30
2018-12-27T18:14:06.309Z,6.00
2018-12-27T18:16:34.181Z,6.00
2018-12-27T18:19:02.101Z,6.00
2018-12-27T18:21:30.010Z,5.90
2018-12-27T18:23:57.840Z,5.90
2018-12-27T18:26:25.646Z,6.20
2018-12-27T18:28:54.556Z,6.00
2018-12-27T18:31:23.031Z,6.10
2018-12-27T18:33:51.522Z,5.70
2018-12-27T18:36:19.571Z,6.00
2018-12-27T18:38:48.723Z,5.80
2018-12-27T18:41:19.715Z,5.90
2018-12-27T18:43:47.713Z,6.10
2018-12-27T18:46:15.610Z,6.10
2018-12-27T18:48:43.714Z,5.90
2018-12-27T18:51:11.813Z,6.10
2018-12-27T18:53:41.030Z,5.80
2018-12-27T18:56:10.503Z,6.00
2018-12-27T18:58:38.451Z,5.60
2018-12-27T19:01:09.518Z,6.00
2018-12-27T19:03:40.085Z,5.70
2018-12-27T19:06:07.895Z,5.50
2018-12-27T19:08:37.568Z,5.50
2018-12-27T19:12:00.540Z,5.70
2018-12-27T19:14:28.498Z,5.60
2018-12-27T19:16:57.744Z,5.50
2018-12-27T19:19:25.779Z,5.10
2018-12-27T19:22:39.558Z,5.50
2018-12-27T19:25:07.570Z,5.30
2018-12-27T19:27:35.483Z,5.40
2018-12-27T19:30:05.788Z,5.30
2018-12-27T19:32:35.931Z,5.40
2018-12-27T19:35:06.276Z,5.10
2018-12-27T19:37:35.685Z,5.40
2018-12-27T19:40:04.485Z,5.30
2018-12-27T19:42:32.624Z,5.40
2018-12-27T19:45:01.532Z,5.00
2018-12-27T19:47:30.336Z,5.20
2018-12-27T19:49:58.329Z,5.10
2018-12-27T19:52:26.500Z,5.00
2018-12-27T19:54:54.780Z,4.80
2018-12-27T19:57:22.609Z,5.20
2018-12-27T19:59:51.194Z,5.00
2018-12-27T20:02:19.181Z,5.40
2018-12-27T20:04:47.202Z,5.10
2018-12-27T20:07:17.309Z,5.60
2018-12-27T20:09:45.572Z,5.20
2018-12-27T20:12:13.421Z,5.10
2018-12-27T20:14:41.342Z,5.10
2018-12-27T20:17:10.471Z,4.80
2018-12-27T20:19:38.331Z,5.10
2018-12-27T20:22:06.357Z,4.80
2018-12-27T20:24:34.208Z,4.90
2018-12-27T20:27:04.871Z,4.80
2018-12-27T20:29:32.754Z,4.80
2018-12-27T20:32:00.654Z,4.90
2018-12-27T20:34:28.705Z,5.40
2018-12-27T20:36:56.688Z,5.20
2018-12-27T20:39:24.640Z,5.30
2018-12-27T20:41:54.870Z,5.30
2018-12-27T20:44:23.772Z,5.10
2018-12-27T20:46:51.682Z,5.30
2018-12-27T20:49:19.850Z,5.40
2018-12-27T20:51:47.791Z,5.10
2018-12-27T20:54:17.092Z,5.30
2018-12-27T20:56:45.367Z,5.20
2018-12-27T20:59:13.232Z,5.20
2018-12-27T21:01:41.139Z,4.90
2018-12-27T21:04:11.636Z,5.10
2018-12-27T21:06:40.772Z,3.90
2018-12-27T21:09:08.612Z,4.50
2018-12-27T21:11:41.596Z,4.80
2018-12-27T21:14:10.592Z,4.70
2018-12-27T21:16:38.614Z,4.60
2018-12-27T21:19:06.566Z,4.50
2018-12-27T21:21:34.479Z,4.70
2018-12-27T21:24:02.290Z,5.00
2018-12-27T21:26:30.856Z,4.60
2018-12-27T21:28:59.299Z,4.80
2018-12-27T21:31:27.374Z,4.60
2018-12-27T21:33:55.337Z,4.30
2018-12-27T21:36:27.204Z,4.40
2018-12-27T21:38:55.342Z,4.70
2018-12-27T21:41:24.672Z,4.50
2018-12-27T21:43:55.455Z,4.30
2018-12-27T21:46:23.565Z,4.10
2018-12-27T21:48:56.319Z,4.30
2018-12-27T21:51:24.430Z,4.10
2018-12-27T21:53:55.599Z,4.10
2018-12-27T21:56:26.245Z,3.80
2018-12-27T21:58:54.245Z,4.00
2018-12-27T22:01:29.680Z,4.20
2018-12-27T22:03:59.572Z,3.80
2018-12-27T22:06:32.262Z,3.80
2018-12-27T22:09:05.029Z,4.00
2018-12-27T22:11:35.311Z,3.80
2018-12-27T22:14:12.550Z,3.70
2018-12-27T22:16:46.504Z,4.10
2018-12-27T22:19:17.214Z,3.70
2018-12-27T22:21:47.574Z,3.70
2018-12-27T22:24:15.710Z,3.40
2018-12-27T22:26:49.347Z,3.80
2018-12-27T22:29:22.668Z,3.40
2018-12-27T22:31:50.985Z,3.40
2018-12-27T22:34:24.109Z,3.20
2018-12-27T22:36:55.303Z,3.20
2018-12-27T22:39:23.213Z,3.10
2018-12-27T22:41:51.214Z,2.90
2018-12-27T22:44:21.400Z,3.10
2018-12-27T22:46:49.548Z,2.80
2018-12-27T22:49:20.860Z,2.80
2018-12-27T22:51:56.395Z,2.90
2018-12-27T22:54:24.390Z,2.90
2018-12-27T22:56:52.291Z,2.60
2018-12-27T22:59:22.029Z,2.80
2018-12-27T23:01:50.060Z,2.50
2018-12-27T23:04:20.690Z,2.10
2018-12-27T23:06:55.608Z,2.50
2018-12-27T23:09:23.693Z,2.40
2018-12-27T23:11:53.351Z,2.40
2018-12-27T23:14:21.550Z,2.80
2018-12-27T23:16:49.524Z,2.50
2018-12-27T23:19:17.557Z,2.40
2018-12-27T23:21:49.250Z,2.50
2018-12-27T23:24:20.035Z,2.00
2018-12-27T23:26:59.463Z,1.90
2018-12-27T23:29:32.300Z,2.30
2018-12-27T23:32:03.590Z,2.60
2018-12-27T23:34:34.484Z,2.30
2018-12-27T23:37:10.780Z,2.60
2018-12-27T23:39:46.492Z,2.40
2018-12-27T23:42:14.541Z,2.50
2018-12-27T23:44:51.160Z,2.70
2018-12-27T23:47:19.135Z,2.50
2018-12-27T23:49:49.670Z,2.00
2018-12-27T23:52:25.328Z,2.20
2018-12-27T23:54:57.869Z,2.40
2018-12-27T23:57:25.907Z,2.00
2018-12-27T23:59:53.965Z,1.90
